createdAt,value
2019-02-28T00:01:01.362Z,74.37
2019-02-28T00:03:30.598Z,74.28
2019-02-28T00:05:59.872Z,74.74
2019-02-28T00:08:29.083Z,75.72
2019-02-28T00:10:58.356Z,76.68
2019-02-28T00:13:27.735Z,77.44
2019-02-28T00:15:56.976Z,77.91
2019-02-28T00:18:26.215Z,77.92
2019-02-28T00:20:55.454Z,77.49
2019-02-28T00:23:24.714Z,76.94
2019-02-28T00:25:53.968Z,76.25
2019-02-28T00:28:25.779Z,75.59
2019-02-28T00:30:54.177Z,75.08
2019-02-28T00:33:23.578Z,75.80
2019-02-28T00:35:52.841Z,75.26
2019-02-28T00:38:22.104Z,75.09
2019-02-28T00:40:51.351Z,75.03
2019-02-28T00:43:22.313Z,75.06
2019-02-28T00:45:51.541Z,75.37
2019-02-28T00:48:21.744Z,75.13
2019-02-28T00:50:51.666Z,75.29
2019-02-28T00:53:20.905Z,74.98
2019-02-28T00:55:50.140Z,75.70
2019-02-28T00:58:19.510Z,75.81
2019-02-28T01:00:48.825Z,75.90
2019-02-28T01:03:18.039Z,75.87
2019-02-28T01:05:47.359Z,75.52
2019-02-28T01:08:19.105Z,75.62
2019-02-28T01:10:47.571Z,75.75
2019-02-28T01:13:16.810Z,75.80
2019-02-28T01:15:46.074Z,75.75
2019-02-28T01:18:15.346Z,75.80
2019-02-28T01:20:49.968Z,75.98
2019-02-28T01:23:15.601Z,75.90
2019-02-28T01:25:44.822Z,75.99
2019-02-28T01:28:14.086Z,75.98
2019-02-28T01:30:43.313Z,75.83
2019-02-28T01:33:12.542Z,75.38
2019-02-28T01:35:41.777Z,75.56
2019-02-28T01:38:11.013Z,75.67
2019-02-28T01:40:40.245Z,75.93
2019-02-28T01:43:09.496Z,76.13
2019-02-28T01:45:43.447Z,76.53
2019-02-28T01:48:09.702Z,77.03
2019-02-28T01:50:38.925Z,76.68
2019-02-28T01:53:08.168Z,76.78
2019-02-28T01:55:37.411Z,77.02
2019-02-28T01:58:06.693Z,77.07
2019-02-28T02:00:35.910Z,76.94
2019-02-28T02:03:05.231Z,76.81
2019-02-28T02:05:34.483Z,77.03
2019-02-28T02:08:06.491Z,76.95
2019-02-28T02:10:34.776Z,76.87
2019-02-28T02:13:04.347Z,76.63
2019-02-28T02:15:33.526Z,76.38
2019-02-28T02:18:02.864Z,76.46
2019-02-28T02:20:32.093Z,76.62
2019-02-28T02:23:01.359Z,76.66
2019-02-28T02:25:30.594Z,76.54
2019-02-28T02:27:59.868Z,76.71
2019-02-28T02:30:29.192Z,76.88
2019-02-28T02:32:58.440Z,77.00
2019-02-28T02:35:27.674Z,77.11
2019-02-28T02:37:56.924Z,77.36
2019-02-28T02:40:26.151Z,77.41
2019-02-28T02:42:55.388Z,77.21
2019-02-28T02:45:24.627Z,77.36
2019-02-28T02:47:53.870Z,77.37
2019-02-28T02:50:23.080Z,77.75
2019-02-28T02:52:52.323Z,77.72
2019-02-28T02:55:27.960Z,77.75
2019-02-28T02:57:52.539Z,77.71
2019-02-28T03:00:21.757Z,77.91
2019-02-28T03:02:51.061Z,77.71
2019-02-28T03:05:20.281Z,77.58
2019-02-28T03:07:49.540Z,77.56
2019-02-28T03:10:19.729Z,77.66
2019-02-28T03:12:49.398Z,77.37
2019-02-28T03:15:25.461Z,77.31
2019-02-28T03:17:49.745Z,77.61
2019-02-28T03:20:19.000Z,77.58
2019-02-28T03:22:48.477Z,77.52
2019-02-28T03:25:17.808Z,77.38
2019-02-28T03:27:47.069Z,77.16
2019-02-28T03:30:26.010Z,77.09
2019-02-28T03:32:47.843Z,77.79
2019-02-28T03:35:17.060Z,77.68
2019-02-28T03:37:46.320Z,77.47
2019-02-28T03:40:15.746Z,77.35
2019-02-28T03:42:44.997Z,77.42
2019-02-28T03:45:14.758Z,78.04
2019-02-28T03:47:44.011Z,78.34
2019-02-28T03:50:13.783Z,78.11
2019-02-28T03:52:44.655Z,78.20
2019-02-28T03:55:14.510Z,78.38
2019-02-28T03:57:44.033Z,78.81
2019-02-28T04:00:15.828Z,79.15
2019-02-28T04:02:45.093Z,79.07
2019-02-28T04:05:14.325Z,79.82
2019-02-28T04:07:43.555Z,80.19
2019-02-28T04:10:16.648Z,80.93
2019-02-28T04:12:45.543Z,81.38
2019-02-28T04:15:15.075Z,82.00
2019-02-28T04:17:44.333Z,82.45
2019-02-28T04:20:13.700Z,82.24
2019-02-28T04:22:42.943Z,81.08
2019-02-28T04:25:12.226Z,81.83
2019-02-28T04:27:41.848Z,82.37
2019-02-28T04:30:12.146Z,82.72
2019-02-28T04:32:41.369Z,82.02
2019-02-28T04:35:11.712Z,81.74
2019-02-28T04:37:44.979Z,81.27
2019-02-28T04:40:12.200Z,81.19
2019-02-28T04:42:41.448Z,81.29
2019-02-28T04:45:11.133Z,81.16
2019-02-28T04:47:41.578Z,81.01
2019-02-28T04:50:12.638Z,80.73
2019-02-28T04:52:46.718Z,80.83
2019-02-28T04:55:13.368Z,80.97
2019-02-28T04:57:42.592Z,80.99
2019-02-28T05:00:12.157Z,80.81
2019-02-28T05:02:41.435Z,80.15
2019-02-28T05:05:12.814Z,80.74
2019-02-28T05:07:42.175Z,80.78
2019-02-28T05:10:12.138Z,81.21
2019-02-28T05:12:41.363Z,81.07
2019-02-28T05:15:10.976Z,80.77
2019-02-28T05:17:40.222Z,80.58
2019-02-28T05:20:10.799Z,80.02
2019-02-28T05:22:40.569Z,79.81
2019-02-28T05:25:10.065Z,79.64
2019-02-28T05:27:40.252Z,78.98
2019-02-28T05:30:11.582Z,78.75
2019-02-28T05:32:40.823Z,80.10
2019-02-28T05:35:10.083Z,80.33
2019-02-28T05:37:39.324Z,80.72
2019-02-28T05:40:10.348Z,81.10
2019-02-28T05:42:39.561Z,81.08
2019-02-28T05:45:11.401Z,80.72
2019-02-28T05:47:46.336Z,80.35
2019-02-28T05:50:15.092Z,80.97
2019-02-28T05:52:42.903Z,80.52
2019-02-28T05:55:12.161Z,82.22
2019-02-28T05:57:43.570Z,82.96
2019-02-28T06:00:13.773Z,83.09
2019-02-28T06:02:43.000Z,82.77
2019-02-28T06:05:12.811Z,82.87
2019-02-28T06:07:42.680Z,83.26
2019-02-28T06:10:12.581Z,82.72
2019-02-28T06:12:43.789Z,82.13
2019-02-28T06:15:13.239Z,82.07
2019-02-28T06:17:42.501Z,82.59
2019-02-28T06:20:16.354Z,82.61
2019-02-28T06:22:43.486Z,82.43
2019-02-28T06:25:12.791Z,82.12
2019-02-28T06:27:45.736Z,81.51
2019-02-28T06:30:13.350Z,81.52
2019-02-28T06:32:42.580Z,81.96
2019-02-28T06:35:16.062Z,81.80
2019-02-28T06:37:42.799Z,82.09
2019-02-28T06:40:13.432Z,82.05
2019-02-28T06:42:43.466Z,79.95
2019-02-28T06:45:14.716Z,80.89
2019-02-28T06:47:47.940Z,81.37
2019-02-28T06:50:15.379Z,81.19
2019-02-28T06:52:44.603Z,80.61
2019-02-28T06:55:18.020Z,79.33
2019-02-28T06:57:47.276Z,78.12
2019-02-28T07:00:17.091Z,77.81
2019-02-28T07:02:46.299Z,76.55
2019-02-28T07:05:15.579Z,76.15
2019-02-28T07:07:45.654Z,76.52
2019-02-28T07:10:15.851Z,75.17
2019-02-28T07:12:45.067Z,74.33
2019-02-28T07:15:14.632Z,72.96
2019-02-28T07:17:46.585Z,71.87
2019-02-28T07:20:15.427Z,70.47
2019-02-28T07:22:44.818Z,65.00
2019-02-28T07:25:14.059Z,57.43
2019-02-28T07:27:43.375Z,52.29
2019-02-28T07:30:18.448Z,46.54
2019-02-28T07:32:45.439Z,43.32
2019-02-28T07:35:14.668Z,42.30
2019-02-28T07:37:43.992Z,39.35
2019-02-28T07:40:16.177Z,37.11
2019-02-28T07:42:44.639Z,37.48
2019-02-28T07:45:14.251Z,37.41
2019-02-28T07:47:43.815Z,38.62
2019-02-28T07:50:13.073Z,36.75
2019-02-28T07:52:42.333Z,35.77
2019-02-28T07:55:12.244Z,34.19
2019-02-28T07:57:41.529Z,32.57
2019-02-28T08:00:18.317Z,33.53
2019-02-28T08:02:45.603Z,30.57
2019-02-28T08:05:15.071Z,28.15
2019-02-28T08:07:50.250Z,25.00
2019-02-28T08:10:16.880Z,25.11
2019-02-28T08:12:46.167Z,26.39
2019-02-28T08:15:24.676Z,26.84
2019-02-28T08:17:53.951Z,27.32
2019-02-28T08:20:23.217Z,25.34
2019-02-28T08:22:56.423Z,26.00
2019-02-28T08:25:23.587Z,25.99
2019-02-28T08:27:52.852Z,24.91
2019-02-28T08:30:22.980Z,23.29
2019-02-28T08:32:52.260Z,22.70
2019-02-28T08:35:21.482Z,23.45
2019-02-28T08:37:55.642Z,21.46
2019-02-28T08:40:21.985Z,21.21
2019-02-28T08:42:51.412Z,21.94
2019-02-28T08:45:20.651Z,22.22
2019-02-28T08:47:55.455Z,22.00
2019-02-28T08:50:23.702Z,21.17
2019-02-28T08:52:53.192Z,20.60
2019-02-28T08:55:28.842Z,22.56
2019-02-28T08:57:56.907Z,23.41
2019-02-28T09:00:31.075Z,22.11
2019-02-28T09:02:55.725Z,22.56
2019-02-28T09:05:26.655Z,21.41
2019-02-28T09:07:56.008Z,20.12
2019-02-28T09:10:25.480Z,19.94
2019-02-28T09:12:54.733Z,20.34
2019-02-28T09:15:30.052Z,20.13
2019-02-28T09:17:58.158Z,21.05
2019-02-28T09:20:26.157Z,22.32
2019-02-28T09:23:01.631Z,22.31
2019-02-28T09:25:27.106Z,22.89
2019-02-28T09:27:56.572Z,25.91
2019-02-28T09:30:31.598Z,25.94
2019-02-28T09:33:00.856Z,24.22
2019-02-28T09:35:30.100Z,24.93
2019-02-28T09:38:00.290Z,24.75
2019-02-28T09:40:30.619Z,25.14
2019-02-28T09:42:59.914Z,24.93
2019-02-28T09:45:29.181Z,24.87
2019-02-28T09:48:01.998Z,24.45
2019-02-28T09:50:29.695Z,26.28
2019-02-28T09:52:58.996Z,27.51
2019-02-28T09:55:28.222Z,27.86
2019-02-28T09:57:57.613Z,29.47
2019-02-28T10:00:27.825Z,30.42
2019-02-28T10:02:57.086Z,30.31
2019-02-28T10:05:26.336Z,30.44
2019-02-28T10:08:01.694Z,29.92
2019-02-28T10:10:26.645Z,30.86
2019-02-28T10:12:56.850Z,30.73
2019-02-28T10:15:26.531Z,30.41
2019-02-28T10:17:55.894Z,31.65
2019-02-28T10:20:28.251Z,32.06
2019-02-28T10:22:57.487Z,30.94
2019-02-28T10:25:26.980Z,31.58
2019-02-28T10:28:01.383Z,32.27
2019-02-28T10:30:31.669Z,32.10
2019-02-28T10:32:58.427Z,32.07
2019-02-28T10:35:27.681Z,30.15
2019-02-28T10:37:58.390Z,30.30
2019-02-28T10:40:28.195Z,32.33
2019-02-28T10:42:57.443Z,32.79
2019-02-28T10:45:27.342Z,33.33
2019-02-28T10:47:56.600Z,34.33
2019-02-28T10:50:32.142Z,34.53
2019-02-28T10:52:57.285Z,34.30
2019-02-28T10:55:26.646Z,34.82
2019-02-28T10:57:55.880Z,34.49
2019-02-28T11:00:29.386Z,34.93
2019-02-28T11:03:00.745Z,35.92
2019-02-28T11:05:33.928Z,34.86
2019-02-28T11:08:04.335Z,33.75
2019-02-28T11:10:38.506Z,33.73
2019-02-28T11:13:10.625Z,31.54
2019-02-28T11:15:39.996Z,31.54
2019-02-28T11:18:09.969Z,33.31
2019-02-28T11:20:40.947Z,31.35
2019-02-28T11:23:14.230Z,31.99
2019-02-28T11:25:41.802Z,32.29
2019-02-28T11:28:11.539Z,33.06
2019-02-28T11:30:44.036Z,33.37
2019-02-28T11:33:12.116Z,32.63
2019-02-28T11:35:41.392Z,32.88
2019-02-28T11:38:11.269Z,33.45
2019-02-28T11:40:43.875Z,33.67
2019-02-28T11:43:11.674Z,34.87
2019-02-28T11:45:42.061Z,33.41
2019-02-28T11:48:12.867Z,33.02
2019-02-28T11:50:44.989Z,33.86
2019-02-28T11:53:13.293Z,33.76
2019-02-28T11:55:42.759Z,34.87
2019-02-28T11:58:16.551Z,32.89
2019-02-28T12:00:43.111Z,33.27
2019-02-28T12:03:12.390Z,34.34
2019-02-28T12:05:41.784Z,34.21
2019-02-28T12:08:11.251Z,34.60
2019-02-28T12:10:40.543Z,34.75
2019-02-28T12:13:10.065Z,34.94
2019-02-28T12:15:39.423Z,33.73
2019-02-28T12:18:08.670Z,34.01
2019-02-28T12:20:38.293Z,33.26
2019-02-28T12:23:07.549Z,34.04
2019-02-28T12:25:39.490Z,34.15
2019-02-28T12:28:07.831Z,34.76
2019-02-28T12:30:37.400Z,34.06
2019-02-28T12:33:06.642Z,34.68
2019-02-28T12:35:39.950Z,33.74
2019-02-28T12:38:06.986Z,34.30
2019-02-28T12:40:36.306Z,34.29
2019-02-28T12:43:08.634Z,34.99
2019-02-28T12:45:39.025Z,34.30
2019-02-28T12:48:08.512Z,33.66
2019-02-28T12:50:37.752Z,31.89
2019-02-28T12:53:07.098Z,32.25
2019-02-28T12:55:38.802Z,32.68
2019-02-28T12:58:07.382Z,32.15
2019-02-28T13:00:38.081Z,31.90
2019-02-28T13:03:09.165Z,31.39
2019-02-28T13:05:38.679Z,31.39
2019-02-28T13:08:08.139Z,30.32
2019-02-28T13:10:37.677Z,28.58
2019-02-28T13:13:07.796Z,27.43
2019-02-28T13:15:37.432Z,26.17
2019-02-28T13:18:08.953Z,26.93
2019-02-28T13:20:38.122Z,26.43
2019-02-28T13:23:07.396Z,27.50
2019-02-28T13:25:36.664Z,28.11
2019-02-28T13:28:06.913Z,26.18
2019-02-28T13:30:39.680Z,26.74
2019-02-28T13:33:07.243Z,26.12
2019-02-28T13:35:36.647Z,26.92
2019-02-28T13:38:06.245Z,26.56
2019-02-28T13:40:35.662Z,26.58
2019-02-28T13:43:05.029Z,26.02
2019-02-28T13:45:34.281Z,26.93
2019-02-28T13:48:03.611Z,27.48
2019-02-28T13:50:33.090Z,27.56
2019-02-28T13:53:16.913Z,27.18
2019-02-28T13:55:33.726Z,27.25
2019-02-28T13:58:03.078Z,26.78
2019-02-28T14:00:32.679Z,26.77
2019-02-28T14:03:08.863Z,27.67
2019-02-28T14:05:38.784Z,27.46
2019-02-28T14:08:09.762Z,26.88
2019-02-28T14:10:36.778Z,26.91
2019-02-28T14:13:06.187Z,27.06
2019-02-28T14:15:38.070Z,27.96
2019-02-28T14:18:10.693Z,27.77
2019-02-28T14:20:38.862Z,27.91
2019-02-28T14:23:08.141Z,27.31
2019-02-28T14:25:39.716Z,26.31
2019-02-28T14:28:08.387Z,26.37
2019-02-28T14:30:37.614Z,26.84
2019-02-28T14:33:07.164Z,26.90
2019-02-28T14:35:38.490Z,28.26
2019-02-28T14:38:07.669Z,27.73
2019-02-28T14:40:36.979Z,26.79
2019-02-28T14:43:06.435Z,26.84
2019-02-28T14:45:39.301Z,26.94
2019-02-28T14:48:07.265Z,26.40
2019-02-28T14:50:36.509Z,26.39
2019-02-28T14:53:06.067Z,25.49
2019-02-28T14:55:37.403Z,25.90
2019-02-28T14:58:06.542Z,27.39
2019-02-28T15:00:38.913Z,28.28
2019-02-28T15:03:06.806Z,28.21
2019-02-28T15:05:36.855Z,28.21
2019-02-28T15:08:06.305Z,26.96
2019-02-28T15:10:35.809Z,27.02
2019-02-28T15:13:05.273Z,28.80
2019-02-28T15:15:36.295Z,29.98
2019-02-28T15:18:05.886Z,30.61
2019-02-28T15:20:35.148Z,30.49
2019-02-28T15:23:04.508Z,31.26
2019-02-28T15:25:33.748Z,31.12
2019-02-28T15:28:02.978Z,31.00
2019-02-28T15:30:33.876Z,31.09
2019-02-28T15:33:03.728Z,30.83
2019-02-28T15:35:32.983Z,30.97
2019-02-28T15:38:02.235Z,31.55
2019-02-28T15:40:33.538Z,32.33
2019-02-28T15:43:02.843Z,32.75
2019-02-28T15:45:32.136Z,33.34
2019-02-28T15:48:01.383Z,33.27
2019-02-28T15:50:30.642Z,33.67
2019-02-28T15:53:00.090Z,33.47
2019-02-28T15:55:29.491Z,33.56
2019-02-28T15:57:58.730Z,33.49
2019-02-28T16:00:29.367Z,33.63
2019-02-28T16:02:58.762Z,34.11
2019-02-28T16:05:28.079Z,34.83
2019-02-28T16:07:58.453Z,35.07
2019-02-28T16:10:31.858Z,35.26
2019-02-28T16:13:01.657Z,35.49
2019-02-28T16:15:31.127Z,35.81
2019-02-28T16:18:00.404Z,35.99
2019-02-28T16:20:32.061Z,35.90
2019-02-28T16:23:00.714Z,36.17
2019-02-28T16:25:31.911Z,36.56
2019-02-28T16:28:01.151Z,37.03
2019-02-28T16:30:32.191Z,37.37
2019-02-28T16:33:01.954Z,38.09
2019-02-28T16:35:31.207Z,38.59
2019-02-28T16:38:00.615Z,39.20
2019-02-28T16:40:29.997Z,39.55
2019-02-28T16:42:59.242Z,40.07
2019-02-28T16:45:33.855Z,40.45
2019-02-28T16:48:05.503Z,40.70
2019-02-28T16:50:34.872Z,41.08
2019-02-28T16:53:04.528Z,41.35
2019-02-28T16:55:33.819Z,41.45
2019-02-28T16:58:03.086Z,41.81
2019-02-28T17:00:32.330Z,42.23
2019-02-28T17:03:04.141Z,42.65
2019-02-28T17:05:32.691Z,42.76
2019-02-28T17:08:01.942Z,43.18
2019-02-28T17:10:32.989Z,43.61
2019-02-28T17:13:17.357Z,43.85
2019-02-28T17:16:14.751Z,44.11
2019-02-28T17:18:43.995Z,44.31
2019-02-28T17:21:17.866Z,44.62
2019-02-28T17:23:45.274Z,44.85
2019-02-28T17:26:14.621Z,45.03
2019-02-28T17:28:51.277Z,45.26
2019-02-28T17:31:38.240Z,45.23
2019-02-28T17:34:07.561Z,45.38
2019-02-28T17:36:36.842Z,45.78
2019-02-28T17:39:07.864Z,46.03
2019-02-28T17:41:37.913Z,46.23
2019-02-28T17:44:40.715Z,46.33
2019-02-28T17:47:54.919Z,46.65
2019-02-28T17:50:28.598Z,46.96
2019-02-28T17:53:11.016Z,47.34
2019-02-28T17:56:44.550Z,47.39
2019-02-28T17:59:36.024Z,47.97
2019-02-28T18:02:38.117Z,48.34
2019-02-28T18:05:43.045Z,48.58
2019-02-28T18:08:37.770Z,48.54
2019-02-28T18:11:55.511Z,48.49
2019-02-28T18:14:44.453Z,48.87
2019-02-28T18:17:49.739Z,49.11
2019-02-28T18:20:46.328Z,49.04
2019-02-28T18:23:40.139Z,49.02
2019-02-28T18:26:45.269Z,49.00
2019-02-28T18:30:09.314Z,48.88
2019-02-28T18:32:39.438Z,48.65
2019-02-28T18:35:08.722Z,48.53
2019-02-28T18:37:38.021Z,48.58
2019-02-28T18:40:07.710Z,48.69
2019-02-28T18:42:37.000Z,48.74
2019-02-28T18:45:07.476Z,48.74
2019-02-28T18:47:39.859Z,48.65
2019-02-28T18:50:07.856Z,48.52
2019-02-28T18:52:37.132Z,48.46
2019-02-28T18:55:06.718Z,48.34
2019-02-28T18:57:36.151Z,48.17
2019-02-28T19:00:08.545Z,48.20
2019-02-28T19:02:37.514Z,48.24
2019-02-28T19:05:07.324Z,48.14
2019-02-28T19:07:36.570Z,48.02
2019-02-28T19:10:06.019Z,47.83
2019-02-28T19:12:35.280Z,48.28
2019-02-28T19:15:04.964Z,48.19
2019-02-28T19:17:34.223Z,48.52
2019-02-28T19:20:03.442Z,48.92
2019-02-28T19:22:32.766Z,49.33
2019-02-28T19:25:02.030Z,49.28
2019-02-28T19:27:31.263Z,49.92
2019-02-28T19:30:00.526Z,50.38
2019-02-28T19:32:29.786Z,50.69
2019-02-28T19:34:59.074Z,51.40
2019-02-28T19:37:28.314Z,51.84
2019-02-28T19:39:57.564Z,52.50
2019-02-28T19:42:26.882Z,53.43
2019-02-28T19:44:56.133Z,53.79
2019-02-28T19:47:25.370Z,54.17
2019-02-28T19:49:54.642Z,54.08
2019-02-28T19:52:23.861Z,54.30
2019-02-28T19:54:53.148Z,54.43
2019-02-28T19:57:22.372Z,54.63
2019-02-28T19:59:51.633Z,54.76
2019-02-28T20:02:20.885Z,55.13
2019-02-28T20:04:50.151Z,55.51
2019-02-28T20:07:19.402Z,55.76
2019-02-28T20:09:48.658Z,55.77
2019-02-28T20:12:17.875Z,56.00
2019-02-28T20:14:47.152Z,56.23
2019-02-28T20:17:16.413Z,56.50
2019-02-28T20:19:45.695Z,56.61
2019-02-28T20:22:14.923Z,56.85
2019-02-28T20:24:44.185Z,57.26
2019-02-28T20:27:14.024Z,57.74
2019-02-28T20:29:43.277Z,57.93
2019-02-28T20:32:12.531Z,58.02
2019-02-28T20:34:41.813Z,58.10
2019-02-28T20:37:11.052Z,58.33
2019-02-28T20:39:40.339Z,59.02
2019-02-28T20:42:09.598Z,59.74
2019-02-28T20:44:38.853Z,59.99
2019-02-28T20:47:08.092Z,60.70
2019-02-28T20:49:37.562Z,61.22
2019-02-28T20:52:06.801Z,61.19
2019-02-28T20:54:36.064Z,61.11
2019-02-28T20:57:05.345Z,61.40
2019-02-28T20:59:34.625Z,61.87
2019-02-28T21:02:03.931Z,62.32
2019-02-28T21:04:33.187Z,62.12
2019-02-28T21:07:02.439Z,61.36
2019-02-28T21:09:31.735Z,60.70
2019-02-28T21:12:00.965Z,60.17
2019-02-28T21:14:30.223Z,59.57
2019-02-28T21:16:59.445Z,59.29
2019-02-28T21:19:28.673Z,58.55
2019-02-28T21:21:57.941Z,58.26
2019-02-28T21:24:27.155Z,57.80
2019-02-28T21:26:56.450Z,57.76
2019-02-28T21:29:25.667Z,57.43
2019-02-28T21:31:54.910Z,57.35
2019-02-28T21:34:24.160Z,57.06
2019-02-28T21:36:53.658Z,56.93
2019-02-28T21:39:22.864Z,56.83
2019-02-28T21:41:52.115Z,56.61
2019-02-28T21:44:21.342Z,56.65
2019-02-28T21:46:50.671Z,56.63
2019-02-28T21:49:19.971Z,56.56
2019-02-28T21:51:49.249Z,56.35
2019-02-28T21:54:18.478Z,56.28
2019-02-28T21:56:47.733Z,56.66
2019-02-28T21:59:16.981Z,56.82
2019-02-28T22:01:46.252Z,57.01
2019-02-28T22:04:15.533Z,57.44
2019-02-28T22:06:44.922Z,57.50
2019-02-28T22:09:14.153Z,57.71
2019-02-28T22:11:43.407Z,57.53
2019-02-28T22:14:12.667Z,57.51
2019-02-28T22:16:41.953Z,57.67
2019-02-28T22:19:11.209Z,57.91
2019-02-28T22:21:40.480Z,58.26
2019-02-28T22:24:09.711Z,58.73
2019-02-28T22:26:38.975Z,58.86
2019-02-28T22:29:08.249Z,59.11
2019-02-28T22:32:02.478Z,59.15
2019-02-28T22:34:36.931Z,59.17
2019-02-28T22:37:06.204Z,59.32
2019-02-28T22:39:35.428Z,58.79
2019-02-28T22:42:04.726Z,58.36
2019-02-28T22:44:33.964Z,58.53
2019-02-28T22:47:03.290Z,58.49
2019-02-28T22:49:33.703Z,58.60
2019-02-28T22:52:03.104Z,58.62
2019-02-28T22:54:32.361Z,58.80
2019-02-28T22:57:01.590Z,58.75
2019-02-28T22:59:30.954Z,58.69
2019-02-28T23:02:00.197Z,58.80
2019-02-28T23:04:29.417Z,58.70
2019-02-28T23:06:58.687Z,58.90
2019-02-28T23:09:27.914Z,59.14
2019-02-28T23:11:57.177Z,59.36
2019-02-28T23:14:26.471Z,59.31
2019-02-28T23:16:55.743Z,59.24
2019-02-28T23:19:24.977Z,59.31
2019-02-28T23:21:54.250Z,59.58
2019-02-28T23:24:23.478Z,59.84
2019-02-28T23:27:27.253Z,60.35
2019-02-28T23:30:30.869Z,61.10
2019-02-28T23:33:06.446Z,61.93
2019-02-28T23:35:38.374Z,62.50
2019-02-28T23:38:07.637Z,62.82
2019-02-28T23:40:36.865Z,63.54
2019-02-28T23:43:06.121Z,63.82
2019-02-28T23:45:35.396Z,64.44
2019-02-28T23:48:04.637Z,64.53
2019-02-28T23:50:33.918Z,64.73
2019-02-28T23:53:03.166Z,64.94
2019-02-28T23:55:32.444Z,64.98
2019-02-28T23:58:01.696Z,64.87
